AirNav   Pilot Hours Calculator
 
 1463 users online  

HI55 Moanalua Medical Center Heliport
Honolulu, Hawaii, USA

GOING TO HONOLULU?


FAA INFORMATION EFFECTIVE 30 JANUARY 2020

Location

FAA Identifier: HI55
Lat/Long: 21-21-50.9700N 157-53-56.4100W
21-21.849500N 157-53.940167W
21.3641583,-157.8990028
(estimated)
Elevation: 18 ft. / 5 m (estimated)
Variation: 11E (1980)
From city: 5 miles SE of HONOLULU, HI
Time zone: UTC -10 (year round; does not observe DST)
Zip code: 96819

Heliport Operations

Heliport use: Private use. Permission required prior to landing
Activation date: 12/1986
Control tower: no
ARTCC: HONOLULU CONTROL FACILITY CENTER
FSS: HONOLULU FLIGHT SERVICE STATION
Attendance: UNATNDD
Wind indicator: lighted
Segmented circle: no

Heliport Communications

WX ASOS at HNL (3 nm SW): PHONE 808-836-0449
WX ASOS at JRF (10 nm W): 119.8 (808-673-7454)

Nearby radio navigation aids

VOR radial/distance  VOR name  Freq  Var
HNLr017/3.8HONOLULU VORTAC114.8011E
CKHr287/12.5KOKO HEAD VORTAC113.9011E

 
NDB name  Hdg/Dist  Freq  Var  ID
EWABE063/8.724211EHN .... -.

Heliport Services

Runway Information

Helipad H1

Dimensions: 40 x 40 ft. / 12 x 12 m
Surface: concrete
Latitude: 21-21.849500N
Longitude: 157-53.940167W
Elevation: 18.0 ft.
Traffic pattern: leftleft

Heliport Ownership and Management from official FAA records

Ownership: Privately-owned
Owner: KAISER PERMANENTE HEALTH PLAN
3288 MOANALUA ROAD
HONOLULU, HI 96819
Phone 808-432-7737
Manager: ANDREW GILES
3288 MOANALUA RD.
HONOLULU, HI 96819
Phone (808) 432-7960
ADDITIONAL:808-763-8544 (MOBILE)

Additional Remarks

ADDITIONAL CONTACT - RUBEN AGUAYO - DIRECTOR OF ENGINEERING SUPPORT SERVICES 808-271-3882 - RUBEN.X.AGUAYO@KP.ORG.
FOR CD CTC HCF CENTER AT 808-840-6262

Instrument Procedures

There are no published instrument procedures at HI55.

Some nearby airports with instrument procedures:

PHNL - Daniel K Inouye International Airport (3 nm SW)
PHJR - Kalaeloa Airport (John Rodgers Field) (10 nm W)
PHMK - Molokai Airport (47 nm E)
PHLU - Kalaupapa Airport (53 nm E)
PHNY - Lanai Airport (63 nm SE)
 
Loc | Ops | Rwys | IFR | FBO | Links
Com | Nav | Svcs | Stats | Notes
Area around HI55 (Moanalua Medical Center Heliport)
 
Road maps at: MapQuest Bing Google
 
Aerial photo
No photo
 
Sectional chart

 
Airport distance calculator
Flying to Moanalua Medical Center Heliport? Find the distance to fly.

From to HI55

Sunrise and sunset
Times for 24-Feb-2020
 Local
(UTC-10)
 Zulu
(UTC)
Morning civil twilight06:3416:34
Sunrise06:5716:57
Sunset18:3304:33
Evening civil twilight18:5504:55

Current date and time
Zulu (UTC)  24-Feb-2020 19:05:33
Local (UTC-10)  24-Feb-2020 09:05:33
 
METAR
PHNL 
3nm SW 
241853Z 33006KT 10SM CLR 23/16 A3017 RMK AO2 SLP216 T02330161
PHNG 
8nm NE 
241857Z 30005KT 10SM FEW030 24/18 A3015 RMK AO2 SLP205 T02390183 $
PHHI 
9nm NW 
241856Z AUTO 32006KT 10SM CLR 21/18 A3018 RMK AO2 SLP214 T02110183 $
PHJR 
10nm W 
241853Z VRB04KT 10SM CLR 25/16 A3018 RMK AO2 SLP227 T02500161
TAF
PHNL 
3nm SW 
240223Z 2402/2506 25012KT P6SM FEW025 SCT050 BKN070 FM240700 VRB05KT P6SM FEW025 SCT040 FM242100 08010KT P6SM FEW025 SCT040 FM250500 06008KT P6SM FEW025
PHJR 
10nm W 
240052Z 2401/2424 28008KT P6SM FEW020 SCT060 FM240600 VRB04KT P6SM FEW035 FM242100 12008KT P6SM FEW025 SCT060
NOTAMs
Click for the latest NOTAMs
NOTAMs are issued by the DoD/FAA and will open in a separate window not controlled by AirNav.

 

 
 

Would you like to see your business listed on this page?

 If your business provides an interesting product or service to pilots, flight crews, aircraft, or users of the Moanalua Medical Center Heliport, you should consider listing it here.  To start the listing process, click on the button below
 
Add a business
 

Other Pages about Moanalua Medical Center Heliport

Update a link
 
Copyright © AirNav, LLC. All rights reserved. Privacy Policy  Contact